createdAt,value
2019-03-15T00:00:29.869Z,5.85
2019-03-15T00:01:29.781Z,5.84
2019-03-15T00:02:29.711Z,5.85
2019-03-15T00:03:29.647Z,5.97
2019-03-15T00:04:29.580Z,5.98
2019-03-15T00:05:29.508Z,5.98
2019-03-15T00:06:29.445Z,5.95
2019-03-15T00:07:29.379Z,5.95
2019-03-15T00:08:29.311Z,5.95
2019-03-15T00:09:29.246Z,5.94
2019-03-15T00:10:29.180Z,5.93
2019-03-15T00:11:29.406Z,5.97
2019-03-15T00:12:29.041Z,6.02
2019-03-15T00:13:28.977Z,5.93
2019-03-15T00:14:28.909Z,5.98
2019-03-15T00:15:28.858Z,5.97
2019-03-15T00:16:28.784Z,5.95
2019-03-15T00:17:28.707Z,5.97
2019-03-15T00:18:28.656Z,5.98
2019-03-15T00:19:28.575Z,6.03
2019-03-15T00:20:28.508Z,5.98
2019-03-15T00:21:28.439Z,5.97
2019-03-15T00:22:28.375Z,5.91
2019-03-15T00:23:28.302Z,5.94
2019-03-15T00:24:28.239Z,5.98
2019-03-15T00:25:28.190Z,6.05
2019-03-15T00:26:28.108Z,5.95
2019-03-15T00:27:28.039Z,5.95
2019-03-15T00:28:27.975Z,5.94
2019-03-15T00:29:27.913Z,5.97
2019-03-15T00:30:27.834Z,5.98
2019-03-15T00:31:27.771Z,6.00
2019-03-15T00:32:27.705Z,5.94
2019-03-15T00:33:27.637Z,5.90
2019-03-15T00:34:27.577Z,5.95
2019-03-15T00:35:27.564Z,6.00
2019-03-15T00:36:27.442Z,5.94
2019-03-15T00:37:27.368Z,5.94
2019-03-15T00:38:27.302Z,5.94
2019-03-15T00:39:27.239Z,5.97
2019-03-15T00:40:27.169Z,5.94
2019-03-15T00:41:27.101Z,5.91
2019-03-15T00:42:27.038Z,5.97
2019-03-15T00:43:26.968Z,5.98
2019-03-15T00:44:26.901Z,5.94
2019-03-15T00:45:26.840Z,6.02
2019-03-15T00:46:26.769Z,5.97
2019-03-15T00:47:26.706Z,5.95
2019-03-15T00:48:26.638Z,5.94
2019-03-15T00:49:26.571Z,6.09
2019-03-15T00:50:26.504Z,6.11
2019-03-15T00:51:26.445Z,6.05
2019-03-15T00:52:26.374Z,6.08
2019-03-15T00:53:26.307Z,6.11
2019-03-15T00:54:26.240Z,6.12
2019-03-15T00:55:26.164Z,6.12
2019-03-15T00:56:26.097Z,6.09
2019-03-15T00:57:26.030Z,6.08
2019-03-15T00:58:25.963Z,6.06
2019-03-15T00:59:25.894Z,6.08
2019-03-15T01:00:25.828Z,5.97
2019-03-15T01:01:25.762Z,5.94
2019-03-15T01:02:25.697Z,5.91
2019-03-15T01:03:25.630Z,5.91
2019-03-15T01:04:25.569Z,5.91
2019-03-15T01:05:25.496Z,5.82
2019-03-15T01:06:25.433Z,5.82
2019-03-15T01:07:25.361Z,5.85
2019-03-15T01:08:25.296Z,5.79
2019-03-15T01:09:25.231Z,5.77
2019-03-15T01:10:25.165Z,5.84
2019-03-15T01:11:25.096Z,5.84
2019-03-15T01:12:25.033Z,5.76
2019-03-15T01:13:24.958Z,5.70
2019-03-15T01:14:24.895Z,5.73
2019-03-15T01:15:24.827Z,5.75
2019-03-15T01:16:24.765Z,5.76
2019-03-15T01:17:24.702Z,5.70
2019-03-15T01:18:24.625Z,5.75
2019-03-15T01:19:24.568Z,5.72
2019-03-15T01:20:24.492Z,5.72
2019-03-15T01:21:24.425Z,5.76
2019-03-15T01:22:24.358Z,5.69
2019-03-15T01:23:24.296Z,5.70
2019-03-15T01:24:24.222Z,5.72
2019-03-15T01:25:24.160Z,5.67
2019-03-15T01:26:24.089Z,5.62
2019-03-15T01:27:24.029Z,5.70
2019-03-15T01:28:23.959Z,5.58
2019-03-15T01:29:23.892Z,5.58
2019-03-15T01:30:23.827Z,5.61
2019-03-15T01:31:23.756Z,5.57
2019-03-15T01:32:23.693Z,5.59
2019-03-15T01:33:23.622Z,5.55
2019-03-15T01:34:23.557Z,5.54
2019-03-15T01:35:23.494Z,5.62
2019-03-15T01:36:23.438Z,5.65
2019-03-15T01:37:23.367Z,5.67
2019-03-15T01:38:23.291Z,5.62
2019-03-15T01:39:23.220Z,5.57
2019-03-15T01:40:23.154Z,5.58
2019-03-15T01:41:23.090Z,5.62
2019-03-15T01:42:23.016Z,5.57
2019-03-15T01:43:22.954Z,5.65
2019-03-15T01:44:22.890Z,5.66
2019-03-15T01:45:22.816Z,5.58
2019-03-15T01:46:22.753Z,5.66
2019-03-15T01:47:22.686Z,5.62
2019-03-15T01:48:22.628Z,5.65
2019-03-15T01:49:22.550Z,5.62
2019-03-15T01:50:22.484Z,5.61
2019-03-15T01:51:22.418Z,5.65
2019-03-15T01:52:22.350Z,5.67
2019-03-15T01:53:23.415Z,5.61
2019-03-15T01:54:22.218Z,5.58
2019-03-15T01:55:22.162Z,5.59
2019-03-15T01:56:22.083Z,5.61
2019-03-15T01:57:22.016Z,5.52
2019-03-15T01:58:21.949Z,5.59
2019-03-15T01:59:22.583Z,5.58
2019-03-15T02:00:21.815Z,5.58
2019-03-15T02:01:21.746Z,5.67
2019-03-15T02:02:22.330Z,5.61
2019-03-15T02:03:21.632Z,5.61
2019-03-15T02:04:21.551Z,5.59
2019-03-15T02:05:21.481Z,5.62
2019-03-15T02:06:21.420Z,5.69
2019-03-15T02:07:21.344Z,5.59
2019-03-15T02:08:21.277Z,5.59
2019-03-15T02:09:21.214Z,5.65
2019-03-15T02:10:22.235Z,5.62
2019-03-15T02:11:21.085Z,5.61
2019-03-15T02:12:21.774Z,5.58
2019-03-15T02:13:20.947Z,5.55
2019-03-15T02:14:20.875Z,5.58
2019-03-15T02:15:20.810Z,5.57
2019-03-15T02:16:20.741Z,5.50
2019-03-15T02:17:20.676Z,5.55
2019-03-15T02:18:20.604Z,5.48
2019-03-15T02:19:20.536Z,5.55
2019-03-15T02:20:20.476Z,5.52
2019-03-15T02:21:20.411Z,5.51
2019-03-15T02:22:20.342Z,5.54
2019-03-15T02:23:20.297Z,5.48
2019-03-15T02:24:20.217Z,5.44
2019-03-15T02:25:20.139Z,5.43
2019-03-15T02:26:20.071Z,5.48
2019-03-15T02:27:20.006Z,5.37
2019-03-15T02:28:19.941Z,5.44
2019-03-15T02:29:19.866Z,5.44
2019-03-15T02:30:19.803Z,5.43
2019-03-15T02:31:20.828Z,5.52
2019-03-15T02:32:19.669Z,5.43
2019-03-15T02:33:19.603Z,5.47
2019-03-15T02:34:19.537Z,5.41
2019-03-15T02:35:19.934Z,5.41
2019-03-15T02:36:19.401Z,5.47
2019-03-15T02:37:19.334Z,5.40
2019-03-15T02:38:19.284Z,5.47
2019-03-15T02:39:19.930Z,5.43
2019-03-15T02:40:19.139Z,5.51
2019-03-15T02:41:19.066Z,5.44
2019-03-15T02:42:19.022Z,5.52
2019-03-15T02:43:19.197Z,5.47
2019-03-15T02:44:18.863Z,5.54
2019-03-15T02:45:18.801Z,5.50
2019-03-15T02:46:18.730Z,5.52
2019-03-15T02:47:19.436Z,5.40
2019-03-15T02:48:18.596Z,5.52
2019-03-15T02:49:18.540Z,5.43
2019-03-15T02:50:18.507Z,5.41
2019-03-15T02:51:18.394Z,5.50
2019-03-15T02:52:18.331Z,5.44
2019-03-15T02:53:18.260Z,5.50
2019-03-15T02:54:18.190Z,5.41
2019-03-15T02:55:18.133Z,5.39
2019-03-15T02:56:18.060Z,5.40
2019-03-15T02:57:17.990Z,5.37
2019-03-15T02:58:17.932Z,5.34
2019-03-15T02:59:17.858Z,5.33
2019-03-15T03:00:17.797Z,5.44
2019-03-15T03:01:17.726Z,5.39
2019-03-15T03:02:17.656Z,5.39
2019-03-15T03:03:17.596Z,5.29
2019-03-15T03:04:17.519Z,5.37
2019-03-15T03:05:17.449Z,5.32
2019-03-15T03:06:17.389Z,5.34
2019-03-15T03:07:17.321Z,5.29
2019-03-15T03:08:17.257Z,5.32
2019-03-15T03:09:17.203Z,5.27
2019-03-15T03:10:17.124Z,5.27
2019-03-15T03:11:17.054Z,5.30
2019-03-15T03:12:17.593Z,5.29
2019-03-15T03:13:16.918Z,5.27
2019-03-15T03:14:16.848Z,5.32
2019-03-15T03:15:16.787Z,5.29
2019-03-15T03:16:18.549Z,5.33
2019-03-15T03:17:16.659Z,5.33
2019-03-15T03:18:16.582Z,5.36
2019-03-15T03:19:16.515Z,5.36
2019-03-15T03:20:16.451Z,5.25
2019-03-15T03:21:16.398Z,5.33
2019-03-15T03:22:16.317Z,5.37
2019-03-15T03:23:16.242Z,5.27
2019-03-15T03:24:16.193Z,5.33
2019-03-15T03:25:17.206Z,5.37
2019-03-15T03:26:16.051Z,5.41
2019-03-15T03:27:15.983Z,5.37
2019-03-15T03:28:15.917Z,5.41
2019-03-15T03:29:15.849Z,5.33
2019-03-15T03:30:17.137Z,5.37
2019-03-15T03:31:16.198Z,5.41
2019-03-15T03:32:15.643Z,5.30
2019-03-15T03:33:15.577Z,5.44
2019-03-15T03:34:15.506Z,5.32
2019-03-15T03:35:15.445Z,5.30
2019-03-15T03:36:15.372Z,5.39
2019-03-15T03:37:15.306Z,5.43
2019-03-15T03:38:15.241Z,5.39
2019-03-15T03:39:15.172Z,5.50
2019-03-15T03:40:15.107Z,5.47
2019-03-15T03:41:15.036Z,5.40
2019-03-15T03:42:14.988Z,5.44
2019-03-15T03:43:14.903Z,5.41
2019-03-15T03:44:14.844Z,5.57
2019-03-15T03:45:14.777Z,5.52
2019-03-15T03:46:14.699Z,5.51
2019-03-15T03:47:14.641Z,5.52
2019-03-15T03:48:15.918Z,5.57
2019-03-15T03:49:14.503Z,5.48
2019-03-15T03:50:14.433Z,5.57
2019-03-15T03:51:14.373Z,5.50
2019-03-15T03:52:14.301Z,5.50
2019-03-15T03:53:14.231Z,5.51
2019-03-15T03:54:14.165Z,5.52
2019-03-15T03:55:14.100Z,5.51
2019-03-15T03:56:14.034Z,5.52
2019-03-15T03:57:13.967Z,5.50
2019-03-15T03:58:13.906Z,5.50
2019-03-15T03:59:13.913Z,5.51
2019-03-15T04:00:13.768Z,5.62
2019-03-15T04:01:13.697Z,5.62
2019-03-15T04:02:13.633Z,5.66
2019-03-15T04:03:13.570Z,5.67
2019-03-15T04:04:13.494Z,5.67
2019-03-15T04:05:13.444Z,5.57
2019-03-15T04:06:13.360Z,5.73
2019-03-15T04:07:13.307Z,5.69
2019-03-15T04:08:13.227Z,5.69
2019-03-15T04:09:13.160Z,5.69
2019-03-15T04:10:13.093Z,5.72
2019-03-15T04:11:13.027Z,5.84
2019-03-15T04:12:12.961Z,5.80
2019-03-15T04:13:12.892Z,5.72
2019-03-15T04:14:12.843Z,5.73
2019-03-15T04:15:12.769Z,5.77
2019-03-15T04:16:12.695Z,5.76
2019-03-15T04:17:12.623Z,5.80
2019-03-15T04:18:12.558Z,5.79
2019-03-15T04:19:12.490Z,5.76
2019-03-15T04:20:12.427Z,5.76
2019-03-15T04:21:12.357Z,5.82
2019-03-15T04:22:12.296Z,5.80
2019-03-15T04:23:12.230Z,5.84
2019-03-15T04:24:12.211Z,5.79
2019-03-15T04:25:12.095Z,5.88
2019-03-15T04:26:12.021Z,5.82
2019-03-15T04:27:11.959Z,5.79
2019-03-15T04:28:11.884Z,5.85
2019-03-15T04:29:12.075Z,5.85
2019-03-15T04:30:11.756Z,5.80
2019-03-15T04:31:11.689Z,5.98
2019-03-15T04:32:11.637Z,5.95
2019-03-15T04:33:11.556Z,5.95
2019-03-15T04:34:11.492Z,5.95
2019-03-15T04:35:11.416Z,6.00
2019-03-15T04:36:11.354Z,5.95
2019-03-15T04:37:11.287Z,5.94
2019-03-15T04:38:11.219Z,6.00
2019-03-15T04:39:13.841Z,5.94
2019-03-15T04:40:11.094Z,5.97
2019-03-15T04:41:11.029Z,5.93
2019-03-15T04:42:11.157Z,5.97
2019-03-15T04:43:10.890Z,5.94
2019-03-15T04:44:10.816Z,5.94
2019-03-15T04:45:10.751Z,5.95
2019-03-15T04:46:10.682Z,6.09
2019-03-15T04:47:10.619Z,6.03
2019-03-15T04:48:10.551Z,5.93
2019-03-15T04:49:10.492Z,6.09
2019-03-15T04:50:10.416Z,6.13
2019-03-15T04:51:10.351Z,5.93
2019-03-15T04:52:10.371Z,6.05
2019-03-15T04:53:10.213Z,6.11
2019-03-15T04:54:10.150Z,6.09
2019-03-15T04:55:10.087Z,6.16
2019-03-15T04:56:10.025Z,6.08
2019-03-15T04:57:09.952Z,6.11
2019-03-15T04:58:09.886Z,6.19
2019-03-15T04:59:09.855Z,6.19
2019-03-15T05:00:09.749Z,6.18
2019-03-15T05:01:09.685Z,6.16
2019-03-15T05:02:09.635Z,6.13
2019-03-15T05:03:09.553Z,6.19
2019-03-15T05:04:09.493Z,6.13
2019-03-15T05:05:09.416Z,6.15
2019-03-15T05:06:09.366Z,6.21
2019-03-15T05:07:09.282Z,6.21
2019-03-15T05:08:09.224Z,6.16
2019-03-15T05:09:09.150Z,6.13
2019-03-15T05:10:09.084Z,6.15
2019-03-15T05:11:09.017Z,6.18
2019-03-15T05:12:08.947Z,6.12
2019-03-15T05:13:08.892Z,6.15
2019-03-15T05:14:08.816Z,6.03
2019-03-15T05:15:08.748Z,6.19
2019-03-15T05:16:08.688Z,6.18
2019-03-15T05:17:08.622Z,6.19
2019-03-15T05:18:08.548Z,6.12
2019-03-15T05:19:08.484Z,6.16
2019-03-15T05:20:08.426Z,6.15
2019-03-15T05:21:08.348Z,6.15
2019-03-15T05:22:08.284Z,6.13
2019-03-15T05:23:08.220Z,6.21
2019-03-15T05:24:08.152Z,6.16
2019-03-15T05:25:08.086Z,6.16
2019-03-15T05:26:08.015Z,6.15
2019-03-15T05:27:07.958Z,6.15
2019-03-15T05:28:07.884Z,6.11
2019-03-15T05:29:07.824Z,6.09
2019-03-15T05:30:07.786Z,6.02
2019-03-15T05:31:07.694Z,6.15
2019-03-15T05:32:07.613Z,6.24
2019-03-15T05:33:07.551Z,6.18
2019-03-15T05:34:07.482Z,6.16
2019-03-15T05:35:07.417Z,6.24
2019-03-15T05:36:07.352Z,6.13
2019-03-15T05:37:07.291Z,6.12
2019-03-15T05:38:07.220Z,6.06
2019-03-15T05:39:07.148Z,5.98
2019-03-15T05:40:07.083Z,6.11
2019-03-15T05:41:07.023Z,6.13
2019-03-15T05:42:06.948Z,6.08
2019-03-15T05:43:06.879Z,6.15
2019-03-15T05:44:06.817Z,6.16
2019-03-15T05:45:06.750Z,6.11
2019-03-15T05:46:06.684Z,6.09
2019-03-15T05:47:06.615Z,6.06
2019-03-15T05:48:06.553Z,6.03
2019-03-15T05:49:06.481Z,6.02
2019-03-15T05:50:06.413Z,6.18
2019-03-15T05:51:06.350Z,6.12
2019-03-15T05:52:06.283Z,5.97
2019-03-15T05:53:06.214Z,5.97
2019-03-15T05:54:06.154Z,5.95
2019-03-15T05:55:06.087Z,5.91
2019-03-15T05:56:06.027Z,5.98
2019-03-15T05:57:05.946Z,5.90
2019-03-15T05:58:05.882Z,5.84
2019-03-15T05:59:05.816Z,5.82
2019-03-15T06:00:05.755Z,5.84
2019-03-15T06:01:05.689Z,5.85
2019-03-15T06:02:05.619Z,5.79
2019-03-15T06:03:05.553Z,5.76
2019-03-15T06:04:05.479Z,5.73
2019-03-15T06:05:05.414Z,5.70
2019-03-15T06:06:05.346Z,5.73
2019-03-15T06:07:05.280Z,5.77
2019-03-15T06:08:05.215Z,5.84
2019-03-15T06:09:05.149Z,5.87
2019-03-15T06:10:05.087Z,5.82
2019-03-15T06:11:05.025Z,5.98
2019-03-15T06:12:04.948Z,5.94
2019-03-15T06:13:04.877Z,6.00
2019-03-15T06:14:04.809Z,6.03
2019-03-15T06:15:04.751Z,6.08
2019-03-15T06:16:04.678Z,6.18
2019-03-15T06:17:04.610Z,6.16
2019-03-15T06:18:06.734Z,6.13
2019-03-15T06:19:04.490Z,6.13
2019-03-15T06:20:06.398Z,6.13
2019-03-15T06:21:04.349Z,6.18
2019-03-15T06:22:04.276Z,6.09
2019-03-15T06:23:04.210Z,6.24
2019-03-15T06:24:04.143Z,6.12
2019-03-15T06:25:04.089Z,6.13
2019-03-15T06:26:04.008Z,6.15
2019-03-15T06:27:03.949Z,6.13
2019-03-15T06:28:03.874Z,6.19
2019-03-15T06:29:03.807Z,6.15
2019-03-15T06:30:03.748Z,6.16
2019-03-15T06:31:03.672Z,6.16
2019-03-15T06:32:03.609Z,6.24
2019-03-15T06:33:03.586Z,6.18
2019-03-15T06:34:03.482Z,6.19
2019-03-15T06:35:03.408Z,6.24
2019-03-15T06:36:03.353Z,6.18
2019-03-15T06:37:03.275Z,6.16
2019-03-15T06:38:03.212Z,6.13
2019-03-15T06:39:03.140Z,6.32
2019-03-15T06:40:03.125Z,6.25
2019-03-15T06:41:03.004Z,6.27
2019-03-15T06:42:02.939Z,6.30
2019-03-15T06:43:02.875Z,6.31
2019-03-15T06:44:02.805Z,6.37
2019-03-15T06:45:02.745Z,6.25
2019-03-15T06:46:02.672Z,6.42
2019-03-15T06:47:02.605Z,6.45
2019-03-15T06:48:02.544Z,6.37
2019-03-15T06:49:02.471Z,6.40
2019-03-15T06:50:02.411Z,6.43
2019-03-15T06:51:02.338Z,6.40
2019-03-15T06:52:02.276Z,6.37
2019-03-15T06:53:02.205Z,6.42
2019-03-15T06:54:11.318Z,6.46
2019-03-15T06:55:05.127Z,6.56
2019-03-15T06:56:02.004Z,6.57
2019-03-15T06:57:01.945Z,6.61
2019-03-15T06:58:01.868Z,6.57
2019-03-15T06:59:01.807Z,6.64
2019-03-15T07:00:01.744Z,6.63
2019-03-15T07:01:01.701Z,6.67
2019-03-15T07:02:01.608Z,6.71
2019-03-15T07:03:01.542Z,6.64
2019-03-15T07:04:01.484Z,6.63
2019-03-15T07:05:01.403Z,6.64
2019-03-15T07:06:01.339Z,6.74
2019-03-15T07:07:01.310Z,6.74
2019-03-15T07:08:01.207Z,6.65
2019-03-15T07:09:01.144Z,6.81
2019-03-15T07:10:01.080Z,6.81
2019-03-15T07:11:01.014Z,6.78
2019-03-15T07:12:09.322Z,6.89
2019-03-15T07:13:00.872Z,6.91
2019-03-15T07:14:00.830Z,6.96
2019-03-15T07:15:00.746Z,6.96
2019-03-15T07:16:00.676Z,6.89
2019-03-15T07:17:00.613Z,6.92
2019-03-15T07:18:00.557Z,6.86
2019-03-15T07:19:00.475Z,6.91
2019-03-15T07:20:00.408Z,6.97
2019-03-15T07:21:00.344Z,7.00
2019-03-15T07:22:00.279Z,6.96
2019-03-15T07:23:00.219Z,7.00
2019-03-15T07:24:00.153Z,6.96
2019-03-15T07:25:00.093Z,6.99
2019-03-15T07:26:00.011Z,6.91
2019-03-15T07:27:12.088Z,6.88
2019-03-15T07:27:59.880Z,6.97
2019-03-15T07:28:59.811Z,7.00
2019-03-15T07:30:00.095Z,7.06
2019-03-15T07:30:59.700Z,7.00
2019-03-15T07:31:59.621Z,7.10
2019-03-15T07:32:59.551Z,7.04
2019-03-15T07:33:59.481Z,7.16
2019-03-15T07:34:59.417Z,7.11
2019-03-15T07:35:59.688Z,7.13
2019-03-15T07:36:59.290Z,7.11
2019-03-15T07:37:59.225Z,7.19
2019-03-15T07:38:59.152Z,7.15
2019-03-15T07:39:59.084Z,7.15
2019-03-15T07:40:59.019Z,7.16
2019-03-15T07:41:58.952Z,7.19
2019-03-15T07:43:03.115Z,7.18
2019-03-15T07:43:58.825Z,7.25
2019-03-15T07:44:58.756Z,7.31
2019-03-15T07:45:58.691Z,7.26
2019-03-15T07:46:58.621Z,7.31
2019-03-15T07:47:58.553Z,7.29
2019-03-15T07:48:58.488Z,7.28
2019-03-15T07:49:58.426Z,7.28
2019-03-15T07:50:58.366Z,7.29
2019-03-15T07:51:58.302Z,7.26
2019-03-15T07:52:58.314Z,7.39
2019-03-15T07:53:58.205Z,7.42
2019-03-15T07:54:58.123Z,7.46
2019-03-15T07:55:58.059Z,7.46
2019-03-15T07:56:58.009Z,7.40
2019-03-15T07:57:57.901Z,7.37
2019-03-15T07:58:57.838Z,7.40
2019-03-15T07:59:57.838Z,7.40
2019-03-15T08:00:57.694Z,7.42
2019-03-15T08:01:57.630Z,7.40
2019-03-15T08:02:57.567Z,7.42
2019-03-15T08:03:57.500Z,7.31
2019-03-15T08:04:57.438Z,7.29
2019-03-15T08:05:57.369Z,7.29
2019-03-15T08:06:57.305Z,7.34
2019-03-15T08:07:57.232Z,7.21
2019-03-15T08:08:57.172Z,7.25
2019-03-15T08:09:57.119Z,7.15
2019-03-15T08:10:57.033Z,7.11
2019-03-15T08:11:56.974Z,7.21
2019-03-15T08:12:56.918Z,7.26
2019-03-15T08:13:56.843Z,7.16
2019-03-15T08:14:56.771Z,7.19
2019-03-15T08:15:56.707Z,7.25
2019-03-15T08:16:56.639Z,7.31
2019-03-15T08:17:56.576Z,7.26
2019-03-15T08:18:56.514Z,7.21
2019-03-15T08:19:56.443Z,7.18
2019-03-15T08:20:56.378Z,7.13
2019-03-15T08:21:56.739Z,7.13
2019-03-15T08:22:56.244Z,7.11
2019-03-15T08:23:56.180Z,7.10
2019-03-15T08:24:56.109Z,7.24
2019-03-15T08:25:56.048Z,7.16
2019-03-15T08:26:55.983Z,7.16
2019-03-15T08:27:55.911Z,7.26
2019-03-15T08:28:55.847Z,7.22
2019-03-15T08:29:55.779Z,7.26
2019-03-15T08:30:55.724Z,7.31
2019-03-15T08:31:55.649Z,7.22
2019-03-15T08:33:09.169Z,7.18
2019-03-15T08:33:55.517Z,7.11
2019-03-15T08:34:55.453Z,7.18
2019-03-15T08:35:55.383Z,7.19
2019-03-15T08:36:55.314Z,7.19
2019-03-15T08:37:55.249Z,7.24
2019-03-15T08:38:55.188Z,7.22
2019-03-15T08:39:55.122Z,7.24
2019-03-15T08:40:55.110Z,7.24
2019-03-15T08:41:54.988Z,7.21
2019-03-15T08:42:54.916Z,7.34
2019-03-15T08:43:54.855Z,7.29
2019-03-15T08:44:54.791Z,7.21
2019-03-15T08:45:54.724Z,7.29
2019-03-15T08:46:54.662Z,7.33
2019-03-15T08:47:54.594Z,7.15
2019-03-15T08:48:54.528Z,7.19
2019-03-15T08:49:54.453Z,7.22
2019-03-15T08:50:54.391Z,7.26
2019-03-15T08:52:03.723Z,7.15
2019-03-15T08:52:54.574Z,7.21
2019-03-15T08:53:54.195Z,7.13
2019-03-15T08:55:04.678Z,7.21
2019-03-15T08:55:54.063Z,7.26
2019-03-15T08:56:53.992Z,7.16
2019-03-15T08:57:53.927Z,7.29
2019-03-15T08:58:53.860Z,7.16
2019-03-15T08:59:57.530Z,7.22
2019-03-15T09:00:53.731Z,7.22
2019-03-15T09:01:53.663Z,7.19
2019-03-15T09:02:53.600Z,7.19
2019-03-15T09:03:53.528Z,7.13
2019-03-15T09:04:53.468Z,7.18
2019-03-15T09:05:53.481Z,7.24
2019-03-15T09:06:53.337Z,7.21
2019-03-15T09:07:53.264Z,7.19
2019-03-15T09:08:53.200Z,7.18
2019-03-15T09:09:53.136Z,7.13
2019-03-15T09:10:53.066Z,7.15
2019-03-15T09:11:53.005Z,7.11
2019-03-15T09:12:52.934Z,7.15
2019-03-15T09:13:52.869Z,7.08
2019-03-15T09:14:52.806Z,7.16
2019-03-15T09:15:52.738Z,7.04
2019-03-15T09:16:52.669Z,7.04
2019-03-15T09:17:52.606Z,7.06
2019-03-15T09:18:55.344Z,6.99
2019-03-15T09:19:52.474Z,6.91
2019-03-15T09:20:52.405Z,7.06
2019-03-15T09:21:52.340Z,7.13
2019-03-15T09:22:52.274Z,7.07
2019-03-15T09:23:52.210Z,6.97
2019-03-15T09:24:52.176Z,7.03
2019-03-15T09:25:52.081Z,7.00
2019-03-15T09:26:52.008Z,7.01
2019-03-15T09:27:51.944Z,7.11
2019-03-15T09:28:51.877Z,7.08
2019-03-15T09:29:51.812Z,7.08
2019-03-15T09:30:51.750Z,7.07
2019-03-15T09:32:04.432Z,7.03
2019-03-15T09:32:51.615Z,7.07
2019-03-15T09:33:51.545Z,6.97
2019-03-15T09:34:51.480Z,7.01
2019-03-15T09:35:51.414Z,7.06
2019-03-15T09:36:51.356Z,7.10
2019-03-15T09:37:51.310Z,7.08
2019-03-15T09:38:51.212Z,7.11
2019-03-15T09:39:51.153Z,7.13
2019-03-15T09:40:51.083Z,7.16
2019-03-15T09:41:51.015Z,7.04
2019-03-15T09:42:50.976Z,7.13
2019-03-15T09:43:50.887Z,7.15
2019-03-15T09:44:50.818Z,7.10
2019-03-15T09:45:50.753Z,7.15
2019-03-15T09:46:50.683Z,7.19
2019-03-15T09:47:50.618Z,7.18
2019-03-15T09:48:50.551Z,7.24
2019-03-15T09:49:50.486Z,7.19
2019-03-15T09:50:51.715Z,7.28
2019-03-15T09:51:50.353Z,7.16
2019-03-15T09:52:50.289Z,7.18
2019-03-15T09:53:50.220Z,7.24
2019-03-15T09:54:50.157Z,7.16
2019-03-15T09:55:50.089Z,7.25
2019-03-15T09:56:50.026Z,7.29
2019-03-15T09:57:49.957Z,7.26
2019-03-15T09:58:49.899Z,7.22
2019-03-15T09:59:49.834Z,7.31
2019-03-15T10:00:49.757Z,7.24
2019-03-15T10:01:49.695Z,7.34
2019-03-15T10:02:49.638Z,7.26
2019-03-15T10:03:49.567Z,7.28
2019-03-15T10:04:49.493Z,7.31
2019-03-15T10:05:49.431Z,7.29
2019-03-15T10:06:49.358Z,7.31
2019-03-15T10:07:49.302Z,7.33
2019-03-15T10:08:49.232Z,7.22
2019-03-15T10:09:49.157Z,7.25
2019-03-15T10:10:49.467Z,7.25
2019-03-15T10:11:49.032Z,7.25
2019-03-15T10:12:48.969Z,7.19
2019-03-15T10:13:48.898Z,7.26
2019-03-15T10:14:48.833Z,7.31
2019-03-15T10:15:48.889Z,7.31
2019-03-15T10:16:48.715Z,7.25
2019-03-15T10:17:48.639Z,7.33
2019-03-15T10:18:50.578Z,7.33
2019-03-15T10:19:48.502Z,7.26
2019-03-15T10:20:48.432Z,7.28
2019-03-15T10:21:48.371Z,7.22
2019-03-15T10:23:04.633Z,7.31
2019-03-15T10:23:48.245Z,7.25
2019-03-15T10:24:48.173Z,7.26
2019-03-15T10:25:51.151Z,7.31
2019-03-15T10:26:48.037Z,7.25
2019-03-15T10:27:47.969Z,7.31
2019-03-15T10:28:47.906Z,7.25
2019-03-15T10:29:47.848Z,7.31
2019-03-15T10:30:47.781Z,7.42
2019-03-15T10:31:47.710Z,7.39
2019-03-15T10:32:47.643Z,7.40
2019-03-15T10:33:50.681Z,7.46
2019-03-15T10:34:47.509Z,7.49
2019-03-15T10:35:47.450Z,7.50
2019-03-15T10:36:47.376Z,7.50
2019-03-15T10:37:47.316Z,7.55
2019-03-15T10:38:47.248Z,7.50
2019-03-15T10:39:47.181Z,7.54
2019-03-15T10:40:47.117Z,7.54
2019-03-15T10:41:47.049Z,7.49
2019-03-15T10:42:46.984Z,7.52
2019-03-15T10:43:46.917Z,7.55
2019-03-15T10:44:46.849Z,7.54
2019-03-15T10:45:46.784Z,7.55
2019-03-15T10:46:46.718Z,7.57
2019-03-15T10:47:46.656Z,7.61
2019-03-15T10:48:46.593Z,7.60
2019-03-15T10:49:46.522Z,7.58
2019-03-15T10:50:46.457Z,7.61
2019-03-15T10:51:46.388Z,7.69
2019-03-15T10:52:46.324Z,7.69
2019-03-15T10:53:46.267Z,7.71
2019-03-15T10:54:46.192Z,7.74
2019-03-15T10:55:59.168Z,7.68
2019-03-15T10:56:46.061Z,7.73
2019-03-15T10:57:45.989Z,7.71
2019-03-15T10:58:45.928Z,7.69
2019-03-15T10:59:45.863Z,7.76
2019-03-15T11:00:45.794Z,7.74
2019-03-15T11:01:45.731Z,7.80
2019-03-15T11:02:45.665Z,7.78
2019-03-15T11:03:45.598Z,7.91
2019-03-15T11:04:45.544Z,7.91
2019-03-15T11:05:45.464Z,7.91
2019-03-15T11:06:45.398Z,7.86
2019-03-15T11:07:45.341Z,7.88
2019-03-15T11:08:45.268Z,7.99
2019-03-15T11:09:45.212Z,7.94
2019-03-15T11:10:45.137Z,7.98
2019-03-15T11:11:45.083Z,7.99
2019-03-15T11:12:45.003Z,8.10
2019-03-15T11:13:44.941Z,8.10
2019-03-15T11:14:44.871Z,8.13
2019-03-15T11:15:44.807Z,8.10
2019-03-15T11:16:44.763Z,8.13
2019-03-15T11:17:44.682Z,8.10
2019-03-15T11:18:44.617Z,8.16
2019-03-15T11:19:44.543Z,8.19
2019-03-15T11:20:44.479Z,8.24
2019-03-15T11:21:44.409Z,8.32
2019-03-15T11:22:44.348Z,8.34
2019-03-15T11:23:44.283Z,8.34
2019-03-15T11:24:44.228Z,8.34
2019-03-15T11:25:44.179Z,8.24
2019-03-15T11:26:44.081Z,8.37
2019-03-15T11:27:44.020Z,8.35
2019-03-15T11:28:43.955Z,8.42
2019-03-15T11:29:43.894Z,8.49
2019-03-15T11:30:43.824Z,8.38
2019-03-15T11:31:43.756Z,8.42
2019-03-15T11:32:43.691Z,8.46
2019-03-15T11:33:43.624Z,8.50
2019-03-15T11:34:43.562Z,8.53
2019-03-15T11:35:43.496Z,8.57
2019-03-15T11:36:43.433Z,8.62
2019-03-15T11:37:43.364Z,8.57
2019-03-15T11:38:43.298Z,8.75
2019-03-15T11:39:43.235Z,8.71
2019-03-15T11:40:43.174Z,8.83
2019-03-15T11:41:43.104Z,8.85
2019-03-15T11:42:43.038Z,8.90
2019-03-15T11:43:42.977Z,8.89
2019-03-15T11:44:42.906Z,8.98
2019-03-15T11:45:42.904Z,9.08
2019-03-15T11:46:42.811Z,9.11
2019-03-15T11:48:01.284Z,9.14
2019-03-15T11:48:42.646Z,9.19
2019-03-15T11:49:42.581Z,9.34
2019-03-15T11:50:42.512Z,9.33
2019-03-15T11:51:42.789Z,9.41
2019-03-15T11:52:42.399Z,9.36
2019-03-15T11:53:42.318Z,9.42
2019-03-15T11:54:42.254Z,9.36
2019-03-15T11:55:42.194Z,9.42
2019-03-15T11:56:42.129Z,9.48
2019-03-15T11:57:42.068Z,9.45
2019-03-15T11:58:41.994Z,9.44
2019-03-15T11:59:41.930Z,9.60
2019-03-15T12:00:41.958Z,9.57
2019-03-15T12:01:41.800Z,9.57
2019-03-15T12:02:41.747Z,9.54
2019-03-15T12:03:52.450Z,9.65
2019-03-15T12:04:41.603Z,9.69
2019-03-15T12:05:41.541Z,9.67
2019-03-15T12:06:41.478Z,9.66
2019-03-15T12:07:41.411Z,9.80
2019-03-15T12:08:41.343Z,9.87
2019-03-15T12:09:41.280Z,9.85
2019-03-15T12:10:41.216Z,9.88
2019-03-15T12:11:41.153Z,9.88
2019-03-15T12:12:41.086Z,9.90
2019-03-15T12:13:41.024Z,10.01
2019-03-15T12:14:41.490Z,9.99
2019-03-15T12:15:40.902Z,9.98
2019-03-15T12:16:40.826Z,9.98
2019-03-15T12:17:40.763Z,9.99
2019-03-15T12:18:40.699Z,10.06
2019-03-15T12:19:40.634Z,10.03
2019-03-15T12:20:40.569Z,10.05
2019-03-15T12:21:40.502Z,10.12
2019-03-15T12:22:40.439Z,10.18
2019-03-15T12:23:40.374Z,10.21
2019-03-15T12:24:40.315Z,10.27
2019-03-15T12:25:40.244Z,10.24
2019-03-15T12:26:40.877Z,10.21
2019-03-15T12:27:40.118Z,10.21
2019-03-15T12:28:40.054Z,10.35
2019-03-15T12:29:39.984Z,10.35
2019-03-15T12:30:42.878Z,10.28
2019-03-15T12:31:39.881Z,10.39
2019-03-15T12:32:39.810Z,10.38
2019-03-15T12:33:39.726Z,10.48
2019-03-15T12:34:39.667Z,10.39
2019-03-15T12:35:39.605Z,10.41
2019-03-15T12:36:39.539Z,10.43
2019-03-15T12:37:39.471Z,10.48
2019-03-15T12:38:39.407Z,10.46
2019-03-15T12:39:39.343Z,10.49
2019-03-15T12:40:39.279Z,10.39
2019-03-15T12:41:39.229Z,10.52
2019-03-15T12:42:39.198Z,10.41
2019-03-15T12:43:39.091Z,10.55
2019-03-15T12:44:39.021Z,10.49
2019-03-15T12:45:38.954Z,10.58
2019-03-15T12:46:38.895Z,10.57
2019-03-15T12:47:38.833Z,10.52
2019-03-15T12:48:38.764Z,10.60
2019-03-15T12:49:38.701Z,10.62
2019-03-15T12:50:38.635Z,10.70
2019-03-15T12:51:38.572Z,10.75
2019-03-15T12:52:47.098Z,10.79
2019-03-15T12:53:38.443Z,10.79
2019-03-15T12:54:38.379Z,10.78
2019-03-15T12:55:38.324Z,10.80
2019-03-15T12:56:38.256Z,10.76
2019-03-15T12:57:38.185Z,10.90
2019-03-15T12:58:38.123Z,10.91
2019-03-15T12:59:38.062Z,10.90
2019-03-15T13:00:38.000Z,10.95
2019-03-15T13:01:37.931Z,10.94
2019-03-15T13:02:37.867Z,11.09
2019-03-15T13:03:37.799Z,11.04
2019-03-15T13:04:37.745Z,11.01
2019-03-15T13:05:37.676Z,11.04
2019-03-15T13:06:37.612Z,10.98
2019-03-15T13:07:37.551Z,11.01
2019-03-15T13:08:37.483Z,11.05
2019-03-15T13:09:37.514Z,11.03
2019-03-15T13:10:37.359Z,10.95
2019-03-15T13:11:37.288Z,11.08
2019-03-15T13:12:37.228Z,11.03
2019-03-15T13:13:37.164Z,10.97
2019-03-15T13:14:37.099Z,11.00
2019-03-15T13:15:37.044Z,11.04